createdAt,value
2022-11-14T00:01:38.786Z,99.90
2022-11-14T00:04:29.345Z,99.90
2022-11-14T00:07:16.413Z,99.90
2022-11-14T00:10:02.718Z,99.90
2022-11-14T00:12:49.007Z,99.90
2022-11-14T00:15:34.898Z,99.90
2022-11-14T00:18:21.832Z,99.90
2022-11-14T00:21:07.484Z,99.90
2022-11-14T00:23:54.088Z,99.90
2022-11-14T00:26:40.255Z,99.90
2022-11-14T00:29:26.335Z,99.90
2022-11-14T00:32:12.459Z,99.90
2022-11-14T00:34:58.815Z,99.90
2022-11-14T00:37:45.027Z,99.90
2022-11-14T00:40:31.279Z,99.90
2022-11-14T00:43:17.106Z,99.90
2022-11-14T00:46:03.543Z,92.30
2022-11-14T00:48:49.440Z,44.70
2022-11-14T00:51:35.712Z,31.00
2022-11-14T00:54:21.692Z,99.90
2022-11-14T00:57:07.927Z,64.90
2022-11-14T00:59:55.872Z,42.70
2022-11-14T01:02:42.137Z,42.20
2022-11-14T01:05:28.532Z,33.90
2022-11-14T01:08:16.150Z,66.40
2022-11-14T01:11:02.125Z,44.50
2022-11-14T01:13:48.427Z,8.90
2022-11-14T01:16:36.068Z,1.00
2022-11-14T01:19:22.049Z,1.00
2022-11-14T01:22:08.043Z,4.40
2022-11-14T01:24:55.367Z,42.00
2022-11-14T01:27:41.375Z,1.00
2022-11-14T01:30:27.242Z,1.00
2022-11-14T01:33:13.257Z,1.00
2022-11-14T01:36:00.438Z,1.00
2022-11-14T01:38:47.262Z,1.00
2022-11-14T01:41:33.285Z,1.00
2022-11-14T01:44:45.587Z,1.00
2022-11-14T01:47:33.750Z,1.00
2022-11-14T01:50:19.846Z,1.00
2022-11-14T01:53:05.640Z,1.00
2022-11-14T01:55:54.287Z,1.00
2022-11-14T01:58:45.505Z,1.00
2022-11-14T02:01:35.756Z,1.00
2022-11-14T02:04:30.018Z,1.00
2022-11-14T02:07:16.279Z,1.00
2022-11-14T02:10:09.947Z,1.00
2022-11-14T02:12:55.883Z,1.00
2022-11-14T02:15:41.971Z,1.00
2022-11-14T02:18:28.153Z,1.00
2022-11-14T02:21:14.454Z,1.00
2022-11-14T02:24:00.217Z,1.00
2022-11-14T02:26:46.452Z,1.00
2022-11-14T02:29:33.975Z,1.00
2022-11-14T02:32:20.252Z,1.00
2022-11-14T02:35:06.362Z,1.00
2022-11-14T02:37:52.093Z,1.00
2022-11-14T02:40:38.214Z,1.00
2022-11-14T02:43:24.633Z,1.00
2022-11-14T02:46:11.390Z,1.00
2022-11-14T02:48:57.853Z,1.00
2022-11-14T02:51:43.871Z,1.00
2022-11-14T02:54:30.491Z,1.00
2022-11-14T02:57:16.565Z,1.00
2022-11-14T03:00:02.800Z,1.00
2022-11-14T03:02:48.615Z,1.00
2022-11-14T03:05:34.747Z,1.00
2022-11-14T03:08:20.701Z,1.00
2022-11-14T03:11:09.506Z,1.00
2022-11-14T03:13:55.773Z,1.00
2022-11-14T03:16:42.011Z,1.00
2022-11-14T03:19:27.644Z,1.00
2022-11-14T03:22:13.961Z,1.00
2022-11-14T03:24:59.725Z,1.00
2022-11-14T03:27:45.927Z,1.00
2022-11-14T03:30:32.119Z,1.00
2022-11-14T03:33:18.096Z,1.00
2022-11-14T03:36:05.109Z,1.00
2022-11-14T03:38:51.263Z,1.00
2022-11-14T03:41:37.337Z,1.00
2022-11-14T03:44:23.711Z,1.00
2022-11-14T03:47:10.109Z,1.00
2022-11-14T03:49:56.044Z,1.00
2022-11-14T03:52:41.762Z,1.00
2022-11-14T03:55:28.391Z,1.00
2022-11-14T03:58:14.443Z,1.00
2022-11-14T04:01:00.642Z,1.00
2022-11-14T04:03:46.589Z,1.00
2022-11-14T04:06:32.547Z,1.00
2022-11-14T04:09:18.392Z,1.00
2022-11-14T04:12:04.851Z,1.00
2022-11-14T04:14:50.965Z,1.00
2022-11-14T04:17:39.774Z,1.00
2022-11-14T04:20:25.744Z,1.00
2022-11-14T04:23:12.100Z,1.00
2022-11-14T04:25:58.298Z,1.00
2022-11-14T04:28:44.105Z,1.00
2022-11-14T04:31:29.948Z,1.00
2022-11-14T04:34:15.869Z,1.00
2022-11-14T04:37:01.649Z,1.00
2022-11-14T04:39:48.310Z,1.00
2022-11-14T04:42:34.419Z,1.00
2022-11-14T04:45:20.527Z,1.00
2022-11-14T04:48:06.847Z,1.00
2022-11-14T04:50:53.206Z,1.00
2022-11-14T04:53:39.817Z,1.00
2022-11-14T04:56:25.857Z,1.00
2022-11-14T04:59:13.091Z,1.00
2022-11-14T05:02:02.071Z,1.00
2022-11-14T05:04:50.993Z,1.00
2022-11-14T05:07:36.968Z,1.00
2022-11-14T05:10:23.057Z,1.00
2022-11-14T05:13:09.354Z,1.00
2022-11-14T05:15:59.576Z,1.00
2022-11-14T05:18:47.205Z,1.00
2022-11-14T05:21:33.094Z,1.00
2022-11-14T05:24:20.328Z,1.00
2022-11-14T05:27:06.397Z,1.00
2022-11-14T05:29:52.558Z,1.00
2022-11-14T05:32:38.366Z,1.00
2022-11-14T05:35:24.816Z,1.00
2022-11-14T05:38:11.026Z,1.00
2022-11-14T05:40:57.534Z,1.00
2022-11-14T05:43:44.586Z,1.00
2022-11-14T05:46:30.909Z,1.00
2022-11-14T05:49:21.690Z,1.00
2022-11-14T05:52:08.418Z,1.00
2022-11-14T05:54:54.193Z,1.00
2022-11-14T05:57:40.718Z,1.00
2022-11-14T06:00:27.441Z,1.00
2022-11-14T06:03:15.198Z,1.00
2022-11-14T06:06:06.919Z,1.00
2022-11-14T06:08:53.554Z,1.00
2022-11-14T06:11:39.634Z,1.00
2022-11-14T06:14:26.099Z,1.00
2022-11-14T06:17:12.339Z,1.00
2022-11-14T06:19:58.707Z,1.00
2022-11-14T06:22:44.962Z,1.00
2022-11-14T06:25:31.424Z,1.00
2022-11-14T06:28:19.048Z,1.00
2022-11-14T06:31:06.113Z,1.00
2022-11-14T06:33:52.714Z,1.00
2022-11-14T06:36:38.902Z,1.00
2022-11-14T06:39:24.659Z,1.00
2022-11-14T06:42:11.012Z,1.00
2022-11-14T06:44:56.986Z,1.00
2022-11-14T06:47:43.520Z,1.00
2022-11-14T06:50:29.768Z,1.00
2022-11-14T06:53:15.825Z,1.00
2022-11-14T06:56:03.735Z,1.00
2022-11-14T06:58:50.370Z,1.00
2022-11-14T07:01:36.042Z,1.00
2022-11-14T07:04:22.223Z,1.00
2022-11-14T07:07:08.213Z,1.00
2022-11-14T07:09:56.626Z,1.00
2022-11-14T07:12:42.474Z,1.00
2022-11-14T07:15:28.761Z,1.00
2022-11-14T07:18:14.818Z,1.00
2022-11-14T07:21:06.149Z,1.00
2022-11-14T07:23:52.543Z,1.00
2022-11-14T07:26:38.561Z,1.00
2022-11-14T07:29:24.227Z,1.00
2022-11-14T07:32:10.417Z,1.00
2022-11-14T07:35:01.772Z,1.00
2022-11-14T07:37:49.252Z,1.00
2022-11-14T07:40:35.764Z,1.00
2022-11-14T07:43:22.708Z,1.00
2022-11-14T07:46:16.336Z,1.00
2022-11-14T07:49:02.942Z,1.00
2022-11-14T07:51:48.738Z,1.00
2022-11-14T07:54:35.034Z,1.00
2022-11-14T07:57:21.108Z,1.00
2022-11-14T08:00:08.072Z,1.00
2022-11-14T08:02:53.895Z,1.00
2022-11-14T08:05:40.144Z,1.00
2022-11-14T08:08:25.866Z,1.00
2022-11-14T08:11:12.430Z,1.00
2022-11-14T08:13:58.158Z,1.00
2022-11-14T08:16:44.092Z,1.00
2022-11-14T08:19:29.697Z,1.00
2022-11-14T08:22:15.470Z,1.00
2022-11-14T08:25:01.421Z,1.00
2022-11-14T08:27:47.451Z,1.00
2022-11-14T08:30:33.002Z,1.00
2022-11-14T08:33:19.268Z,1.00
2022-11-14T08:36:07.262Z,1.00
2022-11-14T08:38:57.491Z,1.00
2022-11-14T08:41:46.462Z,1.00
2022-11-14T08:44:32.378Z,1.00
2022-11-14T08:47:18.462Z,1.00
2022-11-14T08:50:05.441Z,1.00
2022-11-14T08:52:52.238Z,1.00
2022-11-14T08:55:38.282Z,1.00
2022-11-14T08:58:24.223Z,1.00
2022-11-14T09:01:10.403Z,1.00
2022-11-14T09:03:59.891Z,1.00
2022-11-14T09:06:46.515Z,1.00
2022-11-14T09:09:32.360Z,1.00
2022-11-14T09:12:18.449Z,1.00
2022-11-14T09:15:04.085Z,1.00
2022-11-14T09:17:53.585Z,1.00
2022-11-14T09:20:40.507Z,1.00
2022-11-14T09:23:26.974Z,1.00
2022-11-14T09:26:12.770Z,1.00
2022-11-14T09:28:59.096Z,1.00
2022-11-14T09:31:45.275Z,1.00
2022-11-14T09:34:30.959Z,1.00
2022-11-14T09:37:16.686Z,1.00
2022-11-14T09:40:03.720Z,1.00
2022-11-14T09:43:22.359Z,1.00
2022-11-14T09:46:40.410Z,1.00
2022-11-14T09:49:43.984Z,1.00
2022-11-14T09:52:46.392Z,1.00
2022-11-14T09:55:37.248Z,1.00
2022-11-14T09:58:23.905Z,1.00
2022-11-14T10:01:56.495Z,1.00
2022-11-14T10:05:00.660Z,1.00
2022-11-14T10:08:15.720Z,1.00
2022-11-14T10:11:14.742Z,1.00
2022-11-14T10:14:08.617Z,1.00
2022-11-14T10:17:11.835Z,1.00
2022-11-14T10:20:23.652Z,1.00
2022-11-14T10:23:33.604Z,99.90
2022-11-14T10:26:30.383Z,1.00
2022-11-14T10:29:34.764Z,1.00
2022-11-14T10:32:34.792Z,99.90
2022-11-14T10:35:25.591Z,1.00
2022-11-14T10:38:26.495Z,99.90
2022-11-14T10:41:28.468Z,99.90
2022-11-14T10:44:24.803Z,99.90
2022-11-14T10:47:16.031Z,99.90
2022-11-14T10:50:36.044Z,99.90
2022-11-14T10:53:41.157Z,99.90
2022-11-14T10:56:27.254Z,99.90
2022-11-14T10:59:13.521Z,99.90
2022-11-14T11:01:59.395Z,99.90
2022-11-14T11:04:47.416Z,99.90
2022-11-14T11:08:21.419Z,99.90
2022-11-14T11:11:33.070Z,99.90
2022-11-14T11:14:21.242Z,99.90
2022-11-14T11:17:21.592Z,99.90
2022-11-14T11:20:28.190Z,99.90
2022-11-14T11:23:26.398Z,99.90
2022-11-14T11:26:19.654Z,99.90
2022-11-14T11:29:18.452Z,99.90
2022-11-14T11:32:08.980Z,99.90
2022-11-14T11:39:38.253Z,99.90
2022-11-14T11:45:48.126Z,99.90
2022-11-14T11:48:39.280Z,99.90
2022-11-14T11:51:27.989Z,99.90
2022-11-14T11:54:18.784Z,99.90
2022-11-14T11:57:18.557Z,99.90
2022-11-14T12:00:20.506Z,99.90
2022-11-14T12:03:20.387Z,99.90
2022-11-14T12:06:17.371Z,99.90
2022-11-14T12:09:42.463Z,99.90
2022-11-14T12:12:58.386Z,99.90
2022-11-14T12:16:12.816Z,99.90
2022-11-14T12:19:21.180Z,99.90
2022-11-14T12:23:03.484Z,99.90
2022-11-14T12:26:04.703Z,99.90
2022-11-14T12:29:14.679Z,99.90
2022-11-14T12:32:06.777Z,99.90
2022-11-14T12:34:53.301Z,99.90
2022-11-14T12:37:52.687Z,1.00
2022-11-14T12:40:54.506Z,99.90
2022-11-14T12:43:45.749Z,99.90
2022-11-14T12:47:07.061Z,99.90
2022-11-14T12:49:53.348Z,1.00
2022-11-14T12:52:45.423Z,1.00
2022-11-14T12:55:32.034Z,99.90
2022-11-14T12:58:46.371Z,99.90
2022-11-14T13:01:54.579Z,99.90
2022-11-14T13:05:00.097Z,99.90
2022-11-14T13:07:55.484Z,1.00
2022-11-14T13:10:43.920Z,1.00
2022-11-14T13:13:52.322Z,1.00
2022-11-14T13:16:59.035Z,99.90
2022-11-14T13:20:07.157Z,1.00
2022-11-14T13:22:54.118Z,99.90
2022-11-14T13:25:42.191Z,1.00
2022-11-14T13:28:37.755Z,1.00
2022-11-14T13:31:35.942Z,1.00
2022-11-14T13:34:37.406Z,1.00
2022-11-14T13:37:53.686Z,1.00
2022-11-14T13:40:55.214Z,1.00
2022-11-14T13:44:12.171Z,1.00
2022-11-14T13:47:52.149Z,1.00
2022-11-14T13:50:41.004Z,1.00
2022-11-14T13:53:29.601Z,1.00
2022-11-14T13:56:44.995Z,1.00
2022-11-14T13:59:56.434Z,1.00
2022-11-14T14:02:54.796Z,1.00
2022-11-14T14:06:21.926Z,1.00
2022-11-14T14:09:23.023Z,1.00
2022-11-14T14:12:09.133Z,1.00
2022-11-14T14:15:09.799Z,1.00
2022-11-14T14:18:01.718Z,1.00
2022-11-14T14:21:32.108Z,1.00
2022-11-14T14:24:54.914Z,1.00
2022-11-14T14:27:55.984Z,1.00
2022-11-14T14:30:41.818Z,1.00
2022-11-14T14:33:30.298Z,1.00
2022-11-14T14:36:27.192Z,1.00
2022-11-14T14:39:20.141Z,1.00
2022-11-14T14:42:11.748Z,1.00
2022-11-14T14:44:58.782Z,1.00
2022-11-14T14:47:47.921Z,1.00
2022-11-14T14:50:40.036Z,1.00
2022-11-14T14:53:31.662Z,1.00
2022-11-14T14:56:22.088Z,1.00
2022-11-14T14:59:19.746Z,1.00
2022-11-14T15:02:17.451Z,1.00
2022-11-14T15:15:34.728Z,1.00
2022-11-14T15:18:30.255Z,1.00
2022-11-14T15:21:27.691Z,1.00
2022-11-14T15:24:23.589Z,1.00
2022-11-14T15:27:15.949Z,1.00
2022-11-14T15:30:06.208Z,1.00
2022-11-14T15:32:58.494Z,1.00
2022-11-14T15:35:47.571Z,1.00
2022-11-14T15:38:43.878Z,1.00
2022-11-14T15:41:40.628Z,1.00
2022-11-14T15:44:34.970Z,1.00
2022-11-14T15:47:40.740Z,1.00
2022-11-14T15:50:34.957Z,1.00
2022-11-14T15:53:24.008Z,1.00
2022-11-14T15:56:16.794Z,1.00
2022-11-14T15:59:05.795Z,1.00
2022-11-14T16:01:56.799Z,1.00
2022-11-14T16:04:47.619Z,1.00
2022-11-14T16:07:34.223Z,1.00
2022-11-14T16:10:27.364Z,1.00
2022-11-14T16:13:13.674Z,1.00
2022-11-14T16:16:00.283Z,1.00
2022-11-14T16:18:46.536Z,1.00
2022-11-14T16:21:33.097Z,1.00
2022-11-14T16:24:23.747Z,1.00
2022-11-14T16:27:10.870Z,1.00
2022-11-14T16:29:58.745Z,1.00
2022-11-14T16:32:48.407Z,1.00
2022-11-14T16:35:34.992Z,1.00
2022-11-14T16:38:21.143Z,1.00
2022-11-14T16:41:13.436Z,1.00
2022-11-14T16:43:59.532Z,1.00
2022-11-14T16:46:46.287Z,1.00
2022-11-14T16:49:32.676Z,1.00
2022-11-14T16:52:20.106Z,1.00
2022-11-14T16:55:07.627Z,1.00
2022-11-14T16:57:54.210Z,1.00
2022-11-14T17:00:43.653Z,1.00
2022-11-14T17:03:32.528Z,1.00
2022-11-14T17:06:19.760Z,1.00
2022-11-14T17:09:05.936Z,1.00
2022-11-14T17:11:52.297Z,1.00
2022-11-14T17:14:38.158Z,1.00
2022-11-14T17:17:25.173Z,1.00
2022-11-14T17:20:11.488Z,1.00
2022-11-14T17:22:58.074Z,1.00
2022-11-14T17:25:44.077Z,1.00
2022-11-14T17:28:30.827Z,1.00
2022-11-14T17:31:17.668Z,1.00
2022-11-14T17:34:04.020Z,1.00
2022-11-14T17:36:49.838Z,1.00
2022-11-14T17:39:36.436Z,1.00
2022-11-14T17:42:22.414Z,1.00
2022-11-14T17:45:09.337Z,1.00
2022-11-14T17:47:55.667Z,1.00
2022-11-14T17:50:41.967Z,1.00
2022-11-14T17:53:27.827Z,1.00
2022-11-14T17:56:19.580Z,1.00
2022-11-14T17:59:05.407Z,1.00
2022-11-14T18:01:52.760Z,1.00
2022-11-14T18:04:39.098Z,1.00
2022-11-14T18:07:25.564Z,1.00
2022-11-14T18:10:11.592Z,1.00
2022-11-14T18:12:58.147Z,1.00
2022-11-14T18:15:44.262Z,1.00
2022-11-14T18:18:36.014Z,1.00
2022-11-14T18:21:24.958Z,1.00
2022-11-14T18:24:14.307Z,1.00
2022-11-14T18:27:01.091Z,1.00
2022-11-14T18:29:47.200Z,1.00
2022-11-14T18:32:33.744Z,1.00
2022-11-14T18:35:20.314Z,1.00
2022-11-14T18:38:06.219Z,1.00
2022-11-14T18:40:57.163Z,1.00
2022-11-14T18:43:44.699Z,1.00
2022-11-14T18:46:37.142Z,1.00
2022-11-14T18:49:25.757Z,1.00
2022-11-14T18:52:17.161Z,1.00
2022-11-14T18:55:04.926Z,1.00
2022-11-14T18:57:51.248Z,1.00
2022-11-14T19:00:37.514Z,1.00
2022-11-14T19:03:24.035Z,1.00
2022-11-14T19:06:11.944Z,1.00
2022-11-14T19:09:00.514Z,1.00
2022-11-14T19:12:05.738Z,1.00
2022-11-14T19:14:53.127Z,1.00
2022-11-14T19:17:39.423Z,1.00
2022-11-14T19:20:26.050Z,1.00
2022-11-14T19:23:12.181Z,1.00
2022-11-14T19:26:00.964Z,1.00
2022-11-14T19:28:48.056Z,1.00
2022-11-14T19:31:35.514Z,1.00
2022-11-14T19:34:22.066Z,1.00
2022-11-14T19:37:08.201Z,1.00
2022-11-14T19:39:55.655Z,1.00
2022-11-14T19:42:42.158Z,1.00
2022-11-14T19:45:28.189Z,1.00
2022-11-14T19:48:15.048Z,1.00
2022-11-14T19:51:10.453Z,1.00
2022-11-14T19:53:59.217Z,1.00
2022-11-14T19:56:45.354Z,1.00
2022-11-14T19:59:31.949Z,1.00
2022-11-14T20:02:18.607Z,1.00
2022-11-14T20:05:05.350Z,1.00
2022-11-14T20:07:51.878Z,1.00
2022-11-14T20:10:47.864Z,1.00
2022-11-14T20:13:37.575Z,1.00
2022-11-14T20:16:28.864Z,1.00
2022-11-14T20:19:15.166Z,1.00
2022-11-14T20:22:03.319Z,1.00
2022-11-14T20:24:49.237Z,1.00
2022-11-14T20:27:37.204Z,1.00
2022-11-14T20:30:24.248Z,1.00
2022-11-14T20:33:11.457Z,1.00
2022-11-14T20:36:10.658Z,1.00
2022-11-14T20:38:58.815Z,1.00
2022-11-14T20:41:45.560Z,1.00
2022-11-14T20:44:32.231Z,1.00
2022-11-14T20:47:19.546Z,1.00
2022-11-14T20:50:06.444Z,1.00
2022-11-14T20:52:53.002Z,1.00
2022-11-14T20:55:39.420Z,1.00
2022-11-14T20:58:28.402Z,1.00
2022-11-14T21:01:15.788Z,1.00
2022-11-14T21:04:01.985Z,1.00
2022-11-14T21:06:49.896Z,1.00
2022-11-14T21:09:36.168Z,1.00
2022-11-14T21:12:22.978Z,1.00
2022-11-14T21:15:09.906Z,1.00
2022-11-14T21:17:57.314Z,1.00
2022-11-14T21:20:44.044Z,1.00
2022-11-14T21:23:31.231Z,1.00
2022-11-14T21:26:28.819Z,1.00
2022-11-14T21:29:15.890Z,1.00
2022-11-14T21:32:02.700Z,1.00
2022-11-14T21:34:49.997Z,1.00
2022-11-14T21:37:37.148Z,1.00
2022-11-14T21:40:23.577Z,1.00
2022-11-14T21:43:10.018Z,1.00
2022-11-14T21:46:02.351Z,1.00
2022-11-14T21:48:51.428Z,1.00
2022-11-14T21:51:38.382Z,1.00
2022-11-14T21:54:24.514Z,1.00
2022-11-14T21:57:11.282Z,1.00
2022-11-14T21:59:57.627Z,1.00
2022-11-14T22:03:02.503Z,1.00
2022-11-14T22:05:49.140Z,1.00
2022-11-14T22:08:36.102Z,1.00
2022-11-14T22:11:25.957Z,1.00
2022-11-14T22:14:12.461Z,1.00
2022-11-14T22:17:00.363Z,1.00
2022-11-14T22:19:46.943Z,1.00
2022-11-14T22:22:33.313Z,1.00
2022-11-14T22:25:19.545Z,1.00
2022-11-14T22:28:05.669Z,1.00
2022-11-14T22:31:10.957Z,1.00
2022-11-14T22:33:58.555Z,1.00
2022-11-14T22:36:44.944Z,1.00
2022-11-14T22:39:30.923Z,1.00
2022-11-14T22:42:17.647Z,1.00
2022-11-14T22:45:03.830Z,1.00
2022-11-14T22:47:50.678Z,1.00
2022-11-14T22:50:37.299Z,1.00
2022-11-14T22:53:23.626Z,1.00
2022-11-14T22:56:11.537Z,1.00
2022-11-14T22:58:59.929Z,1.00
2022-11-14T23:01:45.915Z,1.00
2022-11-14T23:04:32.544Z,1.00
2022-11-14T23:07:18.644Z,1.00
2022-11-14T23:10:05.371Z,1.00
2022-11-14T23:12:51.389Z,1.00
2022-11-14T23:15:56.178Z,1.00
2022-11-14T23:18:42.272Z,1.00
2022-11-14T23:21:30.842Z,1.00
2022-11-14T23:24:16.997Z,1.00
2022-11-14T23:27:02.848Z,1.00
2022-11-14T23:29:49.175Z,1.00
2022-11-14T23:32:34.832Z,1.00
2022-11-14T23:35:21.027Z,1.00
2022-11-14T23:38:07.058Z,1.00
2022-11-14T23:41:01.006Z,1.00
2022-11-14T23:43:47.858Z,1.00
2022-11-14T23:46:34.170Z,1.00
2022-11-14T23:49:20.223Z,1.00
2022-11-14T23:52:06.232Z,1.00
2022-11-14T23:54:51.747Z,1.00
2022-11-14T23:57:38.181Z,1.00
